createdAt,value
2022-08-05T00:01:35.455Z,19.26
2022-08-05T00:04:05.202Z,19.26
2022-08-05T00:06:36.472Z,19.25
2022-08-05T00:09:14.786Z,19.24
2022-08-05T00:11:48.764Z,19.25
2022-08-05T00:14:27.632Z,19.26
2022-08-05T00:16:57.452Z,19.27
2022-08-05T00:19:33.684Z,19.26
2022-08-05T00:22:11.294Z,19.26
2022-08-05T00:24:42.194Z,19.24
2022-08-05T00:27:14.061Z,19.21
2022-08-05T00:29:45.131Z,19.18
2022-08-05T00:32:14.947Z,19.16
2022-08-05T00:35:04.312Z,19.15
2022-08-05T00:37:50.650Z,19.13
2022-08-05T00:40:27.865Z,19.12
2022-08-05T00:43:00.008Z,19.09
2022-08-05T00:45:38.801Z,19.08
2022-08-05T00:48:13.388Z,19.06
2022-08-05T00:50:44.233Z,19.04
2022-08-05T00:53:45.050Z,19.02
2022-08-05T00:56:05.527Z,18.99
2022-08-05T00:58:36.828Z,18.96
2022-08-05T01:01:08.534Z,18.94
2022-08-05T01:03:38.666Z,18.93
2022-08-05T01:06:14.164Z,18.93
2022-08-05T01:08:44.610Z,18.92
2022-08-05T01:11:37.282Z,18.92
2022-08-05T01:14:34.750Z,18.92
2022-08-05T01:17:09.007Z,18.91
2022-08-05T01:20:00.962Z,18.90
2022-08-05T01:22:47.008Z,18.90
2022-08-05T01:25:39.663Z,18.89
2022-08-05T01:28:41.027Z,18.86
2022-08-05T01:31:28.062Z,18.83
2022-08-05T01:34:08.435Z,18.80
2022-08-05T01:36:47.046Z,18.79
2022-08-05T01:39:47.169Z,18.77
2022-08-05T01:42:09.719Z,18.77
2022-08-05T01:44:39.240Z,18.77
2022-08-05T01:47:10.622Z,18.77
2022-08-05T01:50:00.413Z,18.77
2022-08-05T01:52:32.375Z,18.80
2022-08-05T01:55:05.492Z,18.80
2022-08-05T01:58:29.847Z,18.78
2022-08-05T02:00:30.489Z,18.76
2022-08-05T02:03:04.285Z,18.73
2022-08-05T02:05:36.563Z,18.72
2022-08-05T02:08:05.560Z,18.69
2022-08-05T02:10:44.661Z,18.67
2022-08-05T02:13:21.039Z,18.62
2022-08-05T02:16:22.103Z,18.59
2022-08-05T02:18:56.609Z,18.55
2022-08-05T02:21:52.565Z,18.50
2022-08-05T02:24:26.808Z,18.44
2022-08-05T02:26:58.191Z,18.39
2022-08-05T02:29:59.703Z,18.35
2022-08-05T02:32:24.064Z,18.31
2022-08-05T02:35:02.024Z,18.27
2022-08-05T02:37:47.623Z,18.23
2022-08-05T02:40:24.351Z,18.19
2022-08-05T02:42:55.544Z,18.17
2022-08-05T02:45:25.414Z,18.16
2022-08-05T02:48:07.357Z,18.15
2022-08-05T02:50:47.030Z,18.16
2022-08-05T02:53:19.418Z,18.16
2022-08-05T02:55:59.537Z,18.15
2022-08-05T02:58:30.292Z,18.14
2022-08-05T03:01:02.269Z,18.11
2022-08-05T03:03:34.086Z,18.09
2022-08-05T03:06:55.444Z,18.07
2022-08-05T03:09:12.531Z,18.04
2022-08-05T03:11:54.822Z,18.02
2022-08-05T03:14:25.421Z,18.00
2022-08-05T03:16:54.169Z,18.01
2022-08-05T03:19:33.993Z,18.02
2022-08-05T03:22:05.093Z,18.04
2022-08-05T03:24:47.193Z,18.08
2022-08-05T03:27:20.682Z,18.10
2022-08-05T03:30:08.191Z,18.12
2022-08-05T03:32:37.698Z,18.15
2022-08-05T03:35:06.144Z,18.17
2022-08-05T03:37:41.009Z,18.19
2022-08-05T03:40:15.488Z,18.21
2022-08-05T03:42:53.076Z,18.24
2022-08-05T03:45:23.250Z,18.26
2022-08-05T03:47:51.841Z,18.29
2022-08-05T03:50:28.714Z,18.33
2022-08-05T03:55:49.952Z,18.37
2022-08-05T03:56:11.591Z,18.41
2022-08-05T03:58:47.001Z,18.47
2022-08-05T04:01:20.920Z,18.53
2022-08-05T04:04:08.845Z,18.57
2022-08-05T04:06:47.867Z,18.62
2022-08-05T04:09:25.803Z,18.66
2022-08-05T04:11:56.526Z,18.69
2022-08-05T04:14:30.356Z,18.71
2022-08-05T04:17:00.709Z,18.74
2022-08-05T04:19:29.422Z,18.75
2022-08-05T04:22:09.917Z,18.78
2022-08-05T04:24:43.789Z,18.80
2022-08-05T04:27:13.969Z,18.83
2022-08-05T04:29:43.150Z,18.86
2022-08-05T04:32:10.763Z,18.90
2022-08-05T04:34:42.608Z,18.96
2022-08-05T04:37:11.256Z,19.02
2022-08-05T04:39:39.235Z,19.06
2022-08-05T04:42:09.138Z,19.12
2022-08-05T04:44:36.968Z,19.18
2022-08-05T04:47:08.907Z,19.24
2022-08-05T04:50:01.474Z,19.29
2022-08-05T04:52:28.205Z,19.34
2022-08-05T04:54:57.303Z,19.39
2022-08-05T04:57:28.980Z,19.44
2022-08-05T04:59:58.660Z,19.48
2022-08-05T05:02:36.305Z,19.53
2022-08-05T05:05:17.038Z,19.58
2022-08-05T05:08:01.540Z,19.60
2022-08-05T05:10:33.284Z,19.64
2022-08-05T05:13:04.018Z,19.69
2022-08-05T05:15:57.059Z,19.76
2022-08-05T05:18:31.405Z,19.82
2022-08-05T05:21:03.561Z,19.91
2022-08-05T05:23:39.367Z,20.00
2022-08-05T05:26:19.697Z,20.11
2022-08-05T05:28:56.997Z,20.20
2022-08-05T05:31:25.201Z,20.29
2022-08-05T05:34:02.162Z,20.38
2022-08-05T05:36:31.698Z,20.46
2022-08-05T05:38:59.517Z,20.54
2022-08-05T05:41:40.732Z,20.61
2022-08-05T05:44:35.817Z,20.69
2022-08-05T05:46:58.402Z,20.79
2022-08-05T05:49:33.075Z,20.87
2022-08-05T05:52:01.331Z,20.95
2022-08-05T05:54:35.040Z,21.04
2022-08-05T05:57:19.768Z,21.14
2022-08-05T05:59:48.782Z,21.22
2022-08-05T06:02:17.173Z,21.30
2022-08-05T06:05:00.343Z,21.38
2022-08-05T06:07:41.264Z,21.44
2022-08-05T06:10:11.221Z,21.53
2022-08-05T06:12:42.247Z,21.61
2022-08-05T06:15:23.537Z,21.69
2022-08-05T06:17:53.315Z,21.77
2022-08-05T06:20:21.900Z,21.86
2022-08-05T06:22:49.939Z,21.94
2022-08-05T06:25:25.322Z,22.03
2022-08-05T06:28:12.351Z,22.13
2022-08-05T06:30:49.233Z,22.22
2022-08-05T06:33:19.053Z,22.29
2022-08-05T06:36:03.841Z,22.38
2022-08-05T06:38:36.399Z,22.49
2022-08-05T06:41:07.893Z,22.59
2022-08-05T06:43:57.412Z,22.68
2022-08-05T06:46:29.747Z,22.78
2022-08-05T06:49:00.844Z,22.87
2022-08-05T06:51:30.998Z,22.95
2022-08-05T06:54:01.654Z,23.04
2022-08-05T06:56:34.290Z,23.15
2022-08-05T06:59:09.422Z,23.24
2022-08-05T07:01:40.883Z,23.32
2022-08-05T07:04:10.767Z,23.41
2022-08-05T07:06:42.299Z,23.49
2022-08-05T07:09:09.890Z,23.59
2022-08-05T07:11:39.791Z,23.67
2022-08-05T07:14:29.395Z,23.75
2022-08-05T07:17:59.398Z,23.83
2022-08-05T07:20:32.106Z,23.90
2022-08-05T07:22:38.830Z,23.97
2022-08-05T07:25:24.010Z,24.02
2022-08-05T07:28:02.353Z,24.10
2022-08-05T07:30:39.126Z,24.17
2022-08-05T07:33:15.776Z,24.23
2022-08-05T07:36:03.138Z,24.30
2022-08-05T07:38:43.758Z,24.38
2022-08-05T07:42:14.418Z,24.48
2022-08-05T07:44:14.312Z,24.56
2022-08-05T07:46:49.400Z,24.62
2022-08-05T07:49:19.103Z,24.69
2022-08-05T07:51:54.056Z,24.76
2022-08-05T07:54:30.903Z,24.83
2022-08-05T07:57:17.575Z,24.89
2022-08-05T07:59:52.318Z,24.96
2022-08-05T08:02:30.840Z,25.01
2022-08-05T08:05:00.421Z,25.07
2022-08-05T08:07:29.192Z,25.13
2022-08-05T08:10:07.920Z,25.20
2022-08-05T08:12:49.387Z,25.26
2022-08-05T08:15:17.740Z,25.33
2022-08-05T08:18:09.731Z,25.39
2022-08-05T08:21:00.568Z,25.47
2022-08-05T08:24:01.606Z,25.55
2022-08-05T08:26:29.403Z,25.65
2022-08-05T08:29:09.803Z,25.69
2022-08-05T08:31:48.406Z,25.74
2022-08-05T08:34:30.178Z,25.80
2022-08-05T08:37:04.607Z,25.86
2022-08-05T08:39:37.238Z,25.93
2022-08-05T08:42:32.381Z,25.97
2022-08-05T08:45:24.264Z,26.03
2022-08-05T08:48:12.752Z,26.09
2022-08-05T08:51:04.084Z,26.14
2022-08-05T08:53:28.966Z,26.18
2022-08-05T08:56:03.141Z,26.22
2022-08-05T08:58:37.104Z,26.26
2022-08-05T09:01:16.728Z,26.31
2022-08-05T09:03:57.610Z,26.37
2022-08-05T09:06:29.849Z,26.40
2022-08-05T09:09:00.542Z,26.46
2022-08-05T09:11:51.394Z,26.49
2022-08-05T09:14:56.546Z,26.56
2022-08-05T09:17:41.021Z,26.61
2022-08-05T09:20:02.881Z,26.64
2022-08-05T09:23:08.937Z,26.68
2022-08-05T09:26:02.755Z,26.80
2022-08-05T09:28:32.112Z,26.88
2022-08-05T09:31:22.458Z,26.94
2022-08-05T09:33:58.437Z,27.02
2022-08-05T09:36:56.268Z,27.08
2022-08-05T09:39:45.215Z,27.12
2022-08-05T09:42:27.704Z,27.18
2022-08-05T09:45:03.282Z,27.26
2022-08-05T09:47:55.351Z,27.28
2022-08-05T09:50:38.927Z,27.30
2022-08-05T09:53:22.721Z,27.34
2022-08-05T09:56:11.417Z,27.40
2022-08-05T09:58:41.650Z,27.45
2022-08-05T10:01:15.197Z,27.49
2022-08-05T10:04:10.711Z,27.51
2022-08-05T10:06:40.620Z,27.54
2022-08-05T10:09:27.418Z,27.57
2022-08-05T10:12:18.459Z,27.63
2022-08-05T10:15:16.296Z,27.72
2022-08-05T10:18:03.380Z,27.80
2022-08-05T10:20:33.672Z,27.82
2022-08-05T10:23:01.927Z,27.84
2022-08-05T10:25:31.182Z,27.91
2022-08-05T10:28:13.339Z,27.97
2022-08-05T10:32:52.142Z,28.01
2022-08-05T10:33:36.119Z,28.09
2022-08-05T10:36:05.895Z,28.10
2022-08-05T10:38:35.672Z,28.13
2022-08-05T10:41:29.050Z,28.16
2022-08-05T10:44:20.199Z,28.22
2022-08-05T10:46:54.265Z,28.24
2022-08-05T10:49:26.845Z,28.25
2022-08-05T10:52:02.611Z,28.29
2022-08-05T10:54:56.176Z,28.36
2022-08-05T10:57:31.877Z,28.42
2022-08-05T11:00:22.845Z,28.45
2022-08-05T11:03:23.260Z,28.49
2022-08-05T11:06:15.344Z,28.54
2022-08-05T11:09:16.733Z,28.55
2022-08-05T11:11:52.611Z,28.59
2022-08-05T11:14:57.667Z,28.65
2022-08-05T11:17:57.515Z,28.76
2022-08-05T11:20:34.358Z,28.83
2022-08-05T11:24:03.091Z,28.92
2022-08-05T11:26:28.670Z,29.03
2022-08-05T11:29:11.841Z,29.11
2022-08-05T11:31:56.338Z,29.20
2022-08-05T11:34:50.919Z,29.28
2022-08-05T11:38:29.639Z,29.38
2022-08-05T11:41:03.618Z,29.50
2022-08-05T11:44:07.442Z,29.61
2022-08-05T11:46:58.241Z,29.70
2022-08-05T11:49:38.115Z,29.78
2022-08-05T11:52:08.643Z,29.80
2022-08-05T11:54:41.453Z,29.83
2022-08-05T11:57:26.077Z,29.90
2022-08-05T11:59:55.723Z,30.03
2022-08-05T12:02:31.511Z,30.19
2022-08-05T12:05:07.189Z,30.32
2022-08-05T12:08:08.296Z,30.49
2022-08-05T12:10:43.053Z,30.69
2022-08-05T12:13:28.042Z,30.81
2022-08-05T12:16:14.652Z,30.93
2022-08-05T12:18:49.062Z,31.05
2022-08-05T12:21:31.861Z,31.21
2022-08-05T12:24:06.892Z,31.42
2022-08-05T12:26:47.349Z,31.69
2022-08-05T12:29:17.853Z,31.95
2022-08-05T12:31:54.498Z,32.29
2022-08-05T12:34:28.869Z,32.75
2022-08-05T12:37:07.384Z,33.33
2022-08-05T12:39:38.775Z,34.02
2022-08-05T12:42:16.957Z,34.81
2022-08-05T12:44:47.623Z,35.63
2022-08-05T12:47:32.812Z,36.74
2022-08-05T12:50:14.208Z,37.76
2022-08-05T12:52:42.894Z,38.50
2022-08-05T12:55:28.323Z,39.09
2022-08-05T12:58:38.175Z,39.81
2022-08-05T13:02:04.061Z,40.66
2022-08-05T13:03:41.511Z,41.68
2022-08-05T13:06:16.033Z,42.73
2022-08-05T13:08:50.818Z,43.49
2022-08-05T13:12:01.829Z,44.03
2022-08-05T13:14:36.454Z,44.72
2022-08-05T13:17:41.701Z,45.90
2022-08-05T13:20:16.528Z,46.96
2022-08-05T13:22:49.478Z,47.56
2022-08-05T13:25:22.249Z,47.41
2022-08-05T13:28:06.716Z,47.29
2022-08-05T13:30:39.109Z,47.36
2022-08-05T13:33:07.364Z,47.45
2022-08-05T13:35:42.756Z,47.30
2022-08-05T13:38:20.247Z,46.80
2022-08-05T13:41:00.269Z,46.06
2022-08-05T13:43:44.246Z,45.66
2022-08-05T13:46:14.144Z,45.37
2022-08-05T13:48:57.875Z,45.20
2022-08-05T13:51:29.668Z,44.87
2022-08-05T13:54:12.473Z,44.59
2022-08-05T13:56:45.398Z,44.46
2022-08-05T13:59:26.879Z,43.94
2022-08-05T14:01:58.708Z,43.80
2022-08-05T14:04:49.694Z,43.51
2022-08-05T14:07:59.657Z,43.17
2022-08-05T14:10:19.207Z,43.56
2022-08-05T14:12:57.117Z,44.21
2022-08-05T14:16:04.664Z,44.15
2022-08-05T14:18:17.467Z,44.34
2022-08-05T14:20:48.124Z,43.94
2022-08-05T14:23:23.858Z,43.53
2022-08-05T14:25:58.436Z,43.42
2022-08-05T14:28:28.672Z,43.05
2022-08-05T14:31:00.605Z,43.00
2022-08-05T14:33:32.687Z,43.06
2022-08-05T14:36:21.373Z,42.97
2022-08-05T14:38:50.026Z,42.94
2022-08-05T14:41:18.654Z,43.22
2022-08-05T14:44:01.645Z,43.65
2022-08-05T14:46:35.304Z,44.30
2022-08-05T14:49:07.200Z,44.85
2022-08-05T14:51:38.113Z,45.33
2022-08-05T14:54:29.983Z,45.69
2022-08-05T14:56:55.780Z,46.13
2022-08-05T14:59:23.697Z,46.53
2022-08-05T15:01:51.529Z,46.74
2022-08-05T15:04:22.435Z,46.58
2022-08-05T15:06:51.130Z,46.83
2022-08-05T15:09:51.374Z,46.93
2022-08-05T15:12:17.042Z,46.95
2022-08-05T15:14:50.325Z,46.99
2022-08-05T15:17:46.896Z,46.67
2022-08-05T15:20:15.589Z,46.61
2022-08-05T15:22:54.029Z,46.61
2022-08-05T15:25:50.910Z,46.63
2022-08-05T15:28:14.867Z,46.55
2022-08-05T15:30:45.750Z,46.61
2022-08-05T15:34:18.917Z,46.60
2022-08-05T15:36:05.101Z,46.54
2022-08-05T15:38:41.832Z,46.34
2022-08-05T15:41:23.188Z,46.13
2022-08-05T15:43:54.718Z,46.07
2022-08-05T15:46:24.734Z,46.14
2022-08-05T15:49:00.936Z,46.22
2022-08-05T15:52:09.950Z,46.21
2022-08-05T15:54:35.026Z,46.00
2022-08-05T15:57:07.337Z,45.89
2022-08-05T15:59:36.602Z,45.41
2022-08-05T16:02:09.571Z,45.15
2022-08-05T16:04:43.463Z,44.85
2022-08-05T16:07:12.102Z,44.71
2022-08-05T16:09:43.477Z,44.69
2022-08-05T16:12:11.695Z,44.75
2022-08-05T16:14:39.950Z,44.91
2022-08-05T16:17:07.740Z,44.86
2022-08-05T16:20:05.576Z,44.82
2022-08-05T16:22:27.728Z,44.87
2022-08-05T16:25:08.052Z,44.73
2022-08-05T16:28:00.116Z,44.48
2022-08-05T16:30:28.824Z,43.97
2022-08-05T16:33:00.993Z,43.59
2022-08-05T16:35:32.055Z,43.25
2022-08-05T16:38:24.606Z,42.87
2022-08-05T16:40:55.097Z,42.39
2022-08-05T16:43:30.205Z,42.23
2022-08-05T16:46:05.379Z,42.13
2022-08-05T16:48:38.457Z,41.97
2022-08-05T16:51:09.692Z,41.74
2022-08-05T16:54:02.437Z,41.62
2022-08-05T16:56:30.145Z,41.42
2022-08-05T16:58:58.363Z,41.35
2022-08-05T17:01:26.672Z,41.14
2022-08-05T17:03:54.387Z,40.75
2022-08-05T17:06:24.689Z,40.27
2022-08-05T17:08:54.315Z,39.57
2022-08-05T17:11:23.756Z,38.88
2022-08-05T17:14:00.182Z,38.13
2022-08-05T17:16:36.821Z,37.39
2022-08-05T17:19:07.642Z,36.82
2022-08-05T17:21:39.683Z,36.22
2022-08-05T17:24:19.554Z,35.73
2022-08-05T17:26:58.241Z,35.16
2022-08-05T17:29:33.098Z,34.71
2022-08-05T17:32:16.754Z,34.24
2022-08-05T17:34:48.147Z,33.83
2022-08-05T17:37:40.340Z,33.49
2022-08-05T17:40:14.429Z,33.12
2022-08-05T17:42:50.996Z,32.78
2022-08-05T17:45:22.174Z,32.44
2022-08-05T17:47:55.114Z,32.14
2022-08-05T17:50:28.637Z,31.83
2022-08-05T17:53:00.023Z,31.51
2022-08-05T17:55:38.425Z,31.22
2022-08-05T17:58:11.215Z,30.91
2022-08-05T18:00:44.935Z,30.62
2022-08-05T18:03:48.434Z,30.35
2022-08-05T18:06:11.005Z,30.09
2022-08-05T18:08:44.593Z,29.87
2022-08-05T18:11:24.349Z,29.63
2022-08-05T18:13:57.467Z,29.30
2022-08-05T18:16:27.606Z,29.05
2022-08-05T18:18:55.273Z,28.83
2022-08-05T18:21:26.026Z,28.60
2022-08-05T18:23:55.877Z,28.40
2022-08-05T18:26:27.732Z,28.20
2022-08-05T18:28:59.976Z,27.98
2022-08-05T18:31:33.020Z,27.78
2022-08-05T18:34:05.746Z,27.57
2022-08-05T18:36:35.393Z,27.38
2022-08-05T18:39:22.428Z,27.23
2022-08-05T18:42:01.833Z,27.07
2022-08-05T18:44:35.476Z,26.92
2022-08-05T18:47:17.290Z,26.77
2022-08-05T18:50:00.869Z,26.61
2022-08-05T18:52:50.913Z,26.48
2022-08-05T18:55:21.549Z,26.32
2022-08-05T18:57:53.232Z,26.22
2022-08-05T19:00:27.234Z,26.17
2022-08-05T19:03:03.697Z,26.09
2022-08-05T19:06:11.088Z,26.01
2022-08-05T19:08:30.733Z,25.92
2022-08-05T19:10:59.680Z,25.84
2022-08-05T19:13:36.043Z,25.75
2022-08-05T19:16:25.394Z,25.63
2022-08-05T19:18:56.588Z,25.50
2022-08-05T19:21:29.422Z,25.38
2022-08-05T19:24:06.524Z,25.27
2022-08-05T19:26:43.774Z,25.16
2022-08-05T19:29:36.015Z,25.07
2022-08-05T19:32:08.673Z,24.97
2022-08-05T19:34:39.692Z,24.90
2022-08-05T19:37:09.916Z,24.84
2022-08-05T19:39:47.740Z,24.75
2022-08-05T19:42:35.002Z,24.66
2022-08-05T19:45:05.624Z,24.56
2022-08-05T19:47:37.149Z,24.47
2022-08-05T19:50:07.791Z,24.38
2022-08-05T19:52:40.080Z,24.30
2022-08-05T19:56:12.476Z,24.22
2022-08-05T19:58:10.364Z,24.13
2022-08-05T20:00:44.082Z,24.05
2022-08-05T20:03:11.868Z,23.98
2022-08-05T20:05:43.269Z,23.93
2022-08-05T20:08:18.697Z,23.88
2022-08-05T20:10:49.339Z,23.83
2022-08-05T20:13:18.017Z,23.79
2022-08-05T20:15:58.086Z,23.74
2022-08-05T20:18:33.747Z,23.70
2022-08-05T20:21:06.744Z,23.66
2022-08-05T20:23:39.930Z,23.64
2022-08-05T20:26:24.815Z,23.62
2022-08-05T20:28:56.402Z,23.60
2022-08-05T20:31:36.988Z,23.59
2022-08-05T20:34:12.524Z,23.60
2022-08-05T20:36:43.418Z,23.61
2022-08-05T20:39:16.220Z,23.62
2022-08-05T20:41:47.747Z,23.62
2022-08-05T20:44:29.424Z,23.63
2022-08-05T20:47:01.438Z,23.65
2022-08-05T20:49:29.101Z,23.66
2022-08-05T20:51:58.029Z,23.68
2022-08-05T20:54:43.025Z,23.68
2022-08-05T20:57:14.363Z,23.71
2022-08-05T20:59:46.329Z,23.70
2022-08-05T21:02:29.847Z,23.70
2022-08-05T21:04:57.418Z,23.68
2022-08-05T21:07:25.140Z,23.66
2022-08-05T21:10:13.776Z,23.62
2022-08-05T21:12:41.481Z,23.53
2022-08-05T21:15:26.253Z,23.31
2022-08-05T21:18:01.845Z,23.23
2022-08-05T21:20:32.811Z,23.21
2022-08-05T21:23:01.387Z,23.15
2022-08-05T21:25:33.674Z,23.08
2022-08-05T21:28:03.104Z,23.03
2022-08-05T21:30:31.607Z,22.99
2022-08-05T21:32:59.811Z,22.97
2022-08-05T21:35:55.457Z,22.96
2022-08-05T21:38:19.123Z,22.93
2022-08-05T21:40:46.824Z,22.93
2022-08-05T21:43:17.873Z,22.92
2022-08-05T21:45:57.614Z,22.90
2022-08-05T21:48:28.850Z,22.88
2022-08-05T21:50:57.178Z,22.88
2022-08-05T21:53:27.196Z,22.89
2022-08-05T21:56:06.574Z,22.85
2022-08-05T21:58:48.271Z,22.77
2022-08-05T22:01:26.716Z,22.78
2022-08-05T22:03:54.431Z,22.78
2022-08-05T22:06:34.769Z,22.79
2022-08-05T22:09:13.805Z,22.73
2022-08-05T22:11:46.775Z,22.67
2022-08-05T22:14:37.460Z,22.63
2022-08-05T22:17:06.819Z,22.58
2022-08-05T22:20:02.225Z,22.52
2022-08-05T22:22:27.093Z,22.49
2022-08-05T22:25:18.090Z,22.48
2022-08-05T22:28:09.298Z,22.49
2022-08-05T22:30:55.668Z,22.51
2022-08-05T22:33:57.633Z,22.54
2022-08-05T22:36:16.687Z,22.56
2022-08-05T22:38:48.661Z,22.57
2022-08-05T22:41:26.493Z,22.56
2022-08-05T22:44:07.820Z,22.52
2022-08-05T22:46:40.011Z,22.48
2022-08-05T22:49:12.506Z,22.46
2022-08-05T22:52:04.395Z,22.44
2022-08-05T22:54:36.092Z,22.42
2022-08-05T22:57:05.863Z,22.38
2022-08-05T22:59:45.895Z,22.33
2022-08-05T23:02:18.097Z,22.31
2022-08-05T23:04:52.147Z,22.29
2022-08-05T23:07:21.717Z,22.27
2022-08-05T23:09:57.977Z,22.24
2022-08-05T23:12:32.566Z,22.22
2022-08-05T23:15:03.398Z,22.19
2022-08-05T23:17:37.225Z,22.15
2022-08-05T23:20:15.553Z,22.12
2022-08-05T23:22:47.595Z,22.10
2022-08-05T23:25:53.008Z,22.04
2022-08-05T23:28:07.084Z,21.96
2022-08-05T23:30:40.175Z,21.89
2022-08-05T23:33:22.334Z,21.81
2022-08-05T23:35:55.094Z,21.74
2022-08-05T23:38:26.052Z,21.66
2022-08-05T23:40:54.441Z,21.58
2022-08-05T23:43:25.572Z,21.51
2022-08-05T23:46:20.117Z,21.45
2022-08-05T23:49:00.941Z,21.39
2022-08-05T23:51:53.732Z,21.35
2022-08-05T23:54:30.467Z,21.30
2022-08-05T23:57:03.712Z,21.28
